Portada
METAR-TAF:

METAR-TAF

Aeroports :

Aeroport de Rabat

Rabat, Marroc

latitud: 34-03N, longitud: 006-46W, altitud: 84 m

Observació

L'informe es va fer fa 21 minuts, a les 00:30 UTC
Vent 4 kt del Sud/Sud-Est
Temperatura 8°C
Humitat 93%
Pressió 1016 hPa
Visibilitat: 6000 m
Escasses núvols a una alçada de 2000 ft

METAR: GMME 300030Z 16004KT 6000 FEW020 08/07 Q1016 NOSIG

Hora: 01:51 (00:51 UTC)

Pronòstic

L'informe es va fer fa 1 hora i 51 minuts, a les 23:00 UTC
Pronòstic vàlid del 30 a les 00 UTC al 31 a les 06 UTC
Vent 8 kt del Sud
Visibilitat: 8000 m
Núvols disperses a una alçada de 1500 ft
Cel ennuvolat a una alçada de 2000 ft
Temporalment
l' 30 a les 08 UTC al 30 a les 18 UTC
Vent 10 kt del Oest/Sud-Oest

TAF: GMME 292300Z 3000/3106 18008KT 8000 SCT015 BKN020 TEMPO 3008/3018 24010KT

Observacions i pronòstics meteorològics de més de 4000 aeroports (METAR i TAF).

Les estacions disponibles són els punts grocs i vermells al mapa.

Posi el ratolí al punt desitjat per veure el nom de l'estació.

Feu clic per veure les observacions i els pronòstics meteorològics.

Per canviar el mapa: feu clic els botons verds amb una creu de color negre per apropar; al botó verd amb un guió per allunyar la imatge; o en les fletxes verdes per a mapes adjacents.


METAR-TAF: